sensor_id;sensor_type;location;lat;lon;timestamp;P1;durP1;ratioP1;P2;durP2;ratioP2
26253;SDS011;53339;51.378;0.094;2024-03-08T00:00:10;48.40;;;19.48;;
26253;SDS011;53339;51.378;0.094;2024-03-08T00:02:42;51.97;;;19.83;;
26253;SDS011;53339;51.378;0.094;2024-03-08T00:05:10;54.13;;;21.25;;
26253;SDS011;53339;51.378;0.094;2024-03-08T00:07:38;32.33;;;14.75;;
26253;SDS011;53339;51.378;0.094;2024-03-08T00:10:07;45.85;;;18.40;;
26253;SDS011;53339;51.378;0.094;2024-03-08T00:12:41;50.65;;;22.35;;
26253;SDS011;53339;51.378;0.094;2024-03-08T00:15:16;52.78;;;23.13;;
26253;SDS011;53339;51.378;0.094;2024-03-08T00:17:45;48.80;;;20.67;;
26253;SDS011;53339;51.378;0.094;2024-03-08T00:20:14;59.28;;;22.13;;
26253;SDS011;53339;51.378;0.094;2024-03-08T00:22:45;45.20;;;20.17;;
26253;SDS011;53339;51.378;0.094;2024-03-08T00:25:13;54.70;;;20.10;;
26253;SDS011;53339;51.378;0.094;2024-03-08T00:27:41;53.90;;;21.20;;
26253;SDS011;53339;51.378;0.094;2024-03-08T00:30:09;55.55;;;19.80;;
26253;SDS011;53339;51.378;0.094;2024-03-08T00:32:38;53.05;;;21.55;;
26253;SDS011;53339;51.378;0.094;2024-03-08T00:35:05;49.83;;;20.73;;
26253;SDS011;53339;51.378;0.094;2024-03-08T00:37:36;56.40;;;21.73;;
26253;SDS011;53339;51.378;0.094;2024-03-08T00:40:04;64.63;;;25.25;;
26253;SDS011;53339;51.378;0.094;2024-03-08T00:42:34;58.85;;;21.50;;
26253;SDS011;53339;51.378;0.094;2024-03-08T00:45:02;53.45;;;22.08;;
26253;SDS011;53339;51.378;0.094;2024-03-08T00:47:30;52.50;;;20.67;;
26253;SDS011;53339;51.378;0.094;2024-03-08T00:49:58;61.17;;;23.25;;
26253;SDS011;53339;51.378;0.094;2024-03-08T00:52:25;56.83;;;22.15;;
26253;SDS011;53339;51.378;0.094;2024-03-08T00:54:53;53.55;;;21.02;;
26253;SDS011;53339;51.378;0.094;2024-03-08T00:57:21;49.03;;;21.15;;
26253;SDS011;53339;51.378;0.094;2024-03-08T00:59:49;61.17;;;25.02;;
26253;SDS011;53339;51.378;0.094;2024-03-08T01:02:16;53.75;;;22.63;;
26253;SDS011;53339;51.378;0.094;2024-03-08T01:04:46;62.22;;;23.25;;
26253;SDS011;53339;51.378;0.094;2024-03-08T01:07:14;56.33;;;20.65;;
26253;SDS011;53339;51.378;0.094;2024-03-08T01:09:42;63.10;;;25.35;;
26253;SDS011;53339;51.378;0.094;2024-03-08T01:12:10;59.50;;;22.30;;
26253;SDS011;53339;51.378;0.094;2024-03-08T01:14:38;51.88;;;22.08;;
26253;SDS011;53339;51.378;0.094;2024-03-08T01:17:06;54.03;;;21.55;;
26253;SDS011;53339;51.378;0.094;2024-03-08T01:19:33;47.55;;;19.42;;
26253;SDS011;53339;51.378;0.094;2024-03-08T01:22:01;49.55;;;20.20;;
26253;SDS011;53339;51.378;0.094;2024-03-08T01:24:29;45.95;;;21.10;;
26253;SDS011;53339;51.378;0.094;2024-03-08T01:26:56;56.00;;;22.15;;
26253;SDS011;53339;51.378;0.094;2024-03-08T01:29:24;56.95;;;22.42;;
26253;SDS011;53339;51.378;0.094;2024-03-08T01:31:51;49.55;;;21.83;;
26253;SDS011;53339;51.378;0.094;2024-03-08T01:34:19;57.28;;;20.08;;
26253;SDS011;53339;51.378;0.094;2024-03-08T01:36:48;46.88;;;20.83;;
26253;SDS011;53339;51.378;0.094;2024-03-08T01:39:15;53.05;;;21.05;;
26253;SDS011;53339;51.378;0.094;2024-03-08T01:41:44;46.40;;;19.05;;
26253;SDS011;53339;51.378;0.094;2024-03-08T01:44:11;51.38;;;19.55;;
26253;SDS011;53339;51.378;0.094;2024-03-08T01:46:46;40.95;;;16.95;;
26253;SDS011;53339;51.378;0.094;2024-03-08T01:49:16;49.60;;;18.70;;
26253;SDS011;53339;51.378;0.094;2024-03-08T01:51:45;38.50;;;16.70;;
26253;SDS011;53339;51.378;0.094;2024-03-08T01:54:14;46.22;;;19.33;;
26253;SDS011;53339;51.378;0.094;2024-03-08T01:56:44;47.47;;;17.30;;
26253;SDS011;53339;51.378;0.094;2024-03-08T01:59:11;46.97;;;18.88;;
26253;SDS011;53339;51.378;0.094;2024-03-08T02:01:44;49.80;;;19.15;;
26253;SDS011;53339;51.378;0.094;2024-03-08T02:04:12;46.08;;;17.45;;
26253;SDS011;53339;51.378;0.094;2024-03-08T02:06:40;45.00;;;18.23;;
26253;SDS011;53339;51.378;0.094;2024-03-08T02:09:07;34.67;;;16.20;;
26253;SDS011;53339;51.378;0.094;2024-03-08T02:11:35;54.08;;;19.20;;
26253;SDS011;53339;51.378;0.094;2024-03-08T02:14:03;40.75;;;16.25;;
26253;SDS011;53339;51.378;0.094;2024-03-08T02:16:33;47.50;;;18.73;;
26253;SDS011;53339;51.378;0.094;2024-03-08T02:19:00;43.28;;;17.75;;
26253;SDS011;53339;51.378;0.094;2024-03-08T02:21:28;34.28;;;14.20;;
26253;SDS011;53339;51.378;0.094;2024-03-08T02:23:56;43.90;;;16.63;;
26253;SDS011;53339;51.378;0.094;2024-03-08T02:26:24;42.92;;;17.25;;
26253;SDS011;53339;51.378;0.094;2024-03-08T02:28:51;47.75;;;16.90;;
26253;SDS011;53339;51.378;0.094;2024-03-08T02:31:19;42.70;;;16.73;;
26253;SDS011;53339;51.378;0.094;2024-03-08T02:33:47;39.35;;;17.20;;
26253;SDS011;53339;51.378;0.094;2024-03-08T02:36:15;35.78;;;17.20;;
26253;SDS011;53339;51.378;0.094;2024-03-08T02:38:43;37.65;;;16.02;;
26253;SDS011;53339;51.378;0.094;2024-03-08T02:41:11;43.33;;;17.67;;
26253;SDS011;53339;51.378;0.094;2024-03-08T02:43:39;41.55;;;17.92;;
26253;SDS011;53339;51.378;0.094;2024-03-08T02:46:06;47.95;;;18.05;;
26253;SDS011;53339;51.378;0.094;2024-03-08T02:48:34;46.58;;;16.13;;
26253;SDS011;53339;51.378;0.094;2024-03-08T02:51:02;40.95;;;16.55;;
26253;SDS011;53339;51.378;0.094;2024-03-08T02:53:30;43.97;;;18.65;;
26253;SDS011;53339;51.378;0.094;2024-03-08T02:55:58;42.72;;;15.65;;
26253;SDS011;53339;51.378;0.094;2024-03-08T02:58:26;39.03;;;15.50;;
26253;SDS011;53339;51.378;0.094;2024-03-08T03:00:54;44.90;;;17.98;;
26253;SDS011;53339;51.378;0.094;2024-03-08T03:03:24;38.33;;;15.20;;
26253;SDS011;53339;51.378;0.094;2024-03-08T03:05:53;40.95;;;17.75;;
26253;SDS011;53339;51.378;0.094;2024-03-08T03:08:23;37.72;;;17.17;;
26253;SDS011;53339;51.378;0.094;2024-03-08T03:10:51;46.08;;;19.33;;
26253;SDS011;53339;51.378;0.094;2024-03-08T03:13:18;43.42;;;18.60;;
26253;SDS011;53339;51.378;0.094;2024-03-08T03:15:46;40.65;;;17.35;;
26253;SDS011;53339;51.378;0.094;2024-03-08T03:18:14;40.30;;;18.30;;
26253;SDS011;53339;51.378;0.094;2024-03-08T03:20:42;29.48;;;15.07;;
26253;SDS011;53339;51.378;0.094;2024-03-08T03:23:11;37.35;;;16.58;;
26253;SDS011;53339;51.378;0.094;2024-03-08T03:25:42;41.70;;;17.48;;
26253;SDS011;53339;51.378;0.094;2024-03-08T03:28:09;39.58;;;17.08;;
26253;SDS011;53339;51.378;0.094;2024-03-08T03:30:41;42.05;;;15.95;;
26253;SDS011;53339;51.378;0.094;2024-03-08T03:33:09;42.08;;;17.55;;
26253;SDS011;53339;51.378;0.094;2024-03-08T03:35:37;37.65;;;17.33;;
26253;SDS011;53339;51.378;0.094;2024-03-08T03:38:05;34.40;;;16.67;;
26253;SDS011;53339;51.378;0.094;2024-03-08T03:40:36;40.65;;;16.52;;
26253;SDS011;53339;51.378;0.094;2024-03-08T03:43:04;42.80;;;16.00;;
26253;SDS011;53339;51.378;0.094;2024-03-08T03:45:32;36.17;;;15.13;;
26253;SDS011;53339;51.378;0.094;2024-03-08T03:48:03;38.55;;;16.83;;
26253;SDS011;53339;51.378;0.094;2024-03-08T03:50:36;35.33;;;14.55;;
26253;SDS011;53339;51.378;0.094;2024-03-08T03:53:04;34.00;;;14.13;;
26253;SDS011;53339;51.378;0.094;2024-03-08T03:55:38;43.17;;;17.00;;
26253;SDS011;53339;51.378;0.094;2024-03-08T03:58:06;43.33;;;15.77;;
26253;SDS011;53339;51.378;0.094;2024-03-08T04:00:34;35.33;;;15.60;;
26253;SDS011;53339;51.378;0.094;2024-03-08T04:03:02;38.85;;;16.17;;
26253;SDS011;53339;51.378;0.094;2024-03-08T04:05:29;38.10;;;16.70;;
26253;SDS011;53339;51.378;0.094;2024-03-08T04:07:58;47.47;;;19.13;;
26253;SDS011;53339;51.378;0.094;2024-03-08T04:10:26;42.63;;;16.00;;
26253;SDS011;53339;51.378;0.094;2024-03-08T04:12:53;38.30;;;15.85;;
26253;SDS011;53339;51.378;0.094;2024-03-08T04:15:21;38.30;;;17.67;;
26253;SDS011;53339;51.378;0.094;2024-03-08T04:17:49;40.63;;;16.05;;
26253;SDS011;53339;51.378;0.094;2024-03-08T04:20:17;45.38;;;15.27;;
26253;SDS011;53339;51.378;0.094;2024-03-08T04:22:45;37.63;;;12.48;;
26253;SDS011;53339;51.378;0.094;2024-03-08T04:25:16;40.13;;;17.45;;
26253;SDS011;53339;51.378;0.094;2024-03-08T04:27:44;34.22;;;16.65;;
26253;SDS011;53339;51.378;0.094;2024-03-08T04:30:11;38.50;;;15.98;;
26253;SDS011;53339;51.378;0.094;2024-03-08T04:32:40;35.05;;;15.18;;
26253;SDS011;53339;51.378;0.094;2024-03-08T04:35:08;41.90;;;16.38;;
26253;SDS011;53339;51.378;0.094;2024-03-08T04:37:36;45.38;;;16.30;;
26253;SDS011;53339;51.378;0.094;2024-03-08T04:40:04;34.72;;;15.18;;
26253;SDS011;53339;51.378;0.094;2024-03-08T04:42:32;39.22;;;14.02;;
26253;SDS011;53339;51.378;0.094;2024-03-08T04:45:01;29.80;;;15.02;;
26253;SDS011;53339;51.378;0.094;2024-03-08T04:47:29;34.75;;;15.95;;
26253;SDS011;53339;51.378;0.094;2024-03-08T04:49:59;39.75;;;17.77;;
26253;SDS011;53339;51.378;0.094;2024-03-08T04:52:26;34.67;;;13.25;;
26253;SDS011;53339;51.378;0.094;2024-03-08T04:54:55;41.38;;;18.00;;
26253;SDS011;53339;51.378;0.094;2024-03-08T04:57:23;38.28;;;16.95;;
26253;SDS011;53339;51.378;0.094;2024-03-08T04:59:52;38.55;;;16.38;;
26253;SDS011;53339;51.378;0.094;2024-03-08T05:02:20;33.22;;;14.77;;
26253;SDS011;53339;51.378;0.094;2024-03-08T05:04:50;39.17;;;16.70;;
26253;SDS011;53339;51.378;0.094;2024-03-08T05:07:17;37.10;;;15.45;;
26253;SDS011;53339;51.378;0.094;2024-03-08T05:09:46;39.42;;;15.25;;
26253;SDS011;53339;51.378;0.094;2024-03-08T05:12:18;38.60;;;15.95;;
26253;SDS011;53339;51.378;0.094;2024-03-08T05:14:46;32.00;;;13.93;;
26253;SDS011;53339;51.378;0.094;2024-03-08T05:17:16;30.65;;;14.07;;
26253;SDS011;53339;51.378;0.094;2024-03-08T05:19:44;34.00;;;16.02;;
26253;SDS011;53339;51.378;0.094;2024-03-08T05:22:12;33.92;;;14.18;;
26253;SDS011;53339;51.378;0.094;2024-03-08T05:24:40;30.88;;;13.57;;
26253;SDS011;53339;51.378;0.094;2024-03-08T05:27:08;42.40;;;16.15;;
26253;SDS011;53339;51.378;0.094;2024-03-08T05:29:35;32.60;;;11.27;;
26253;SDS011;53339;51.378;0.094;2024-03-08T05:32:03;35.90;;;14.75;;
26253;SDS011;53339;51.378;0.094;2024-03-08T05:34:31;33.95;;;14.82;;
26253;SDS011;53339;51.378;0.094;2024-03-08T05:36:59;42.88;;;17.20;;
26253;SDS011;53339;51.378;0.094;2024-03-08T05:39:28;33.38;;;14.60;;
26253;SDS011;53339;51.378;0.094;2024-03-08T05:41:56;34.22;;;16.00;;
26253;SDS011;53339;51.378;0.094;2024-03-08T05:44:24;34.25;;;13.93;;
26253;SDS011;53339;51.378;0.094;2024-03-08T05:46:51;38.58;;;15.23;;
26253;SDS011;53339;51.378;0.094;2024-03-08T05:49:19;35.45;;;15.45;;
26253;SDS011;53339;51.378;0.094;2024-03-08T05:51:46;40.67;;;15.93;;
26253;SDS011;53339;51.378;0.094;2024-03-08T05:54:14;42.67;;;16.48;;
26253;SDS011;53339;51.378;0.094;2024-03-08T05:56:44;34.22;;;14.52;;
26253;SDS011;53339;51.378;0.094;2024-03-08T05:59:12;35.63;;;16.38;;
26253;SDS011;53339;51.378;0.094;2024-03-08T06:01:40;33.58;;;14.60;;
26253;SDS011;53339;51.378;0.094;2024-03-08T06:04:08;23.83;;;12.80;;
26253;SDS011;53339;51.378;0.094;2024-03-08T06:06:38;44.47;;;18.77;;
26253;SDS011;53339;51.378;0.094;2024-03-08T06:11:39;36.63;;;15.20;;
26253;SDS011;53339;51.378;0.094;2024-03-08T06:14:07;27.92;;;12.52;;
26253;SDS011;53339;51.378;0.094;2024-03-08T06:16:34;37.60;;;15.30;;
26253;SDS011;53339;51.378;0.094;2024-03-08T06:19:03;40.67;;;16.88;;
26253;SDS011;53339;51.378;0.094;2024-03-08T06:21:32;39.80;;;16.70;;
26253;SDS011;53339;51.378;0.094;2024-03-08T06:24:00;45.25;;;18.45;;
26253;SDS011;53339;51.378;0.094;2024-03-08T06:26:28;39.25;;;15.40;;
26253;SDS011;53339;51.378;0.094;2024-03-08T06:28:56;43.88;;;17.75;;
26253;SDS011;53339;51.378;0.094;2024-03-08T06:31:25;38.60;;;17.35;;
26253;SDS011;53339;51.378;0.094;2024-03-08T06:33:52;41.97;;;16.92;;
26253;SDS011;53339;51.378;0.094;2024-03-08T06:36:22;46.28;;;18.73;;
26253;SDS011;53339;51.378;0.094;2024-03-08T06:38:50;40.58;;;17.85;;
26253;SDS011;53339;51.378;0.094;2024-03-08T06:41:18;38.75;;;16.15;;
26253;SDS011;53339;51.378;0.094;2024-03-08T06:43:46;47.70;;;18.08;;
26253;SDS011;53339;51.378;0.094;2024-03-08T06:46:15;47.50;;;18.60;;
26253;SDS011;53339;51.378;0.094;2024-03-08T06:48:43;44.03;;;18.83;;
26253;SDS011;53339;51.378;0.094;2024-03-08T06:51:13;38.15;;;17.63;;
26253;SDS011;53339;51.378;0.094;2024-03-08T06:53:41;40.72;;;17.92;;
26253;SDS011;53339;51.378;0.094;2024-03-08T06:56:09;40.28;;;16.95;;
26253;SDS011;53339;51.378;0.094;2024-03-08T06:58:37;35.40;;;15.48;;
26253;SDS011;53339;51.378;0.094;2024-03-08T07:01:04;38.95;;;17.17;;
26253;SDS011;53339;51.378;0.094;2024-03-08T07:03:34;39.08;;;16.98;;
26253;SDS011;53339;51.378;0.094;2024-03-08T07:06:02;44.38;;;17.55;;
26253;SDS011;53339;51.378;0.094;2024-03-08T07:08:34;48.80;;;18.73;;
26253;SDS011;53339;51.378;0.094;2024-03-08T07:11:02;39.50;;;17.63;;
26253;SDS011;53339;51.378;0.094;2024-03-08T07:13:30;39.22;;;17.05;;
26253;SDS011;53339;51.378;0.094;2024-03-08T07:15:58;27.98;;;9.95;;
26253;SDS011;53339;51.378;0.094;2024-03-08T07:18:28;49.40;;;17.73;;
26253;SDS011;53339;51.378;0.094;2024-03-08T07:20:57;42.25;;;17.30;;
26253;SDS011;53339;51.378;0.094;2024-03-08T07:23:25;42.60;;;15.88;;
26253;SDS011;53339;51.378;0.094;2024-03-08T07:26:15;34.15;;;15.50;;
26253;SDS011;53339;51.378;0.094;2024-03-08T07:28:43;45.28;;;16.17;;
26253;SDS011;53339;51.378;0.094;2024-03-08T07:31:11;47.33;;;17.27;;
26253;SDS011;53339;51.378;0.094;2024-03-08T07:33:53;37.60;;;17.10;;
26253;SDS011;53339;51.378;0.094;2024-03-08T07:36:21;37.78;;;16.95;;
26253;SDS011;53339;51.378;0.094;2024-03-08T07:38:51;42.38;;;15.05;;
26253;SDS011;53339;51.378;0.094;2024-03-08T07:41:19;39.88;;;17.75;;
26253;SDS011;53339;51.378;0.094;2024-03-08T07:43:47;42.78;;;14.02;;
26253;SDS011;53339;51.378;0.094;2024-03-08T07:46:15;37.00;;;15.93;;
26253;SDS011;53339;51.378;0.094;2024-03-08T07:48:45;41.85;;;16.50;;
26253;SDS011;53339;51.378;0.094;2024-03-08T07:51:15;49.90;;;16.80;;
26253;SDS011;53339;51.378;0.094;2024-03-08T07:53:45;43.55;;;18.05;;
26253;SDS011;53339;51.378;0.094;2024-03-08T07:56:12;44.03;;;16.15;;
26253;SDS011;53339;51.378;0.094;2024-03-08T07:58:40;38.53;;;17.40;;
26253;SDS011;53339;51.378;0.094;2024-03-08T08:01:15;39.20;;;15.65;;
26253;SDS011;53339;51.378;0.094;2024-03-08T08:03:46;46.00;;;17.73;;
26253;SDS011;53339;51.378;0.094;2024-03-08T08:06:15;47.83;;;16.92;;
26253;SDS011;53339;51.378;0.094;2024-03-08T08:08:43;40.95;;;16.75;;
26253;SDS011;53339;51.378;0.094;2024-03-08T08:11:11;38.92;;;15.40;;
26253;SDS011;53339;51.378;0.094;2024-03-08T08:13:39;46.80;;;17.17;;
26253;SDS011;53339;51.378;0.094;2024-03-08T08:16:06;40.28;;;16.08;;
26253;SDS011;53339;51.378;0.094;2024-03-08T08:18:34;37.00;;;15.70;;
26253;SDS011;53339;51.378;0.094;2024-03-08T08:21:02;46.35;;;15.85;;
26253;SDS011;53339;51.378;0.094;2024-03-08T08:23:33;42.97;;;16.90;;
26253;SDS011;53339;51.378;0.094;2024-03-08T08:26:01;41.28;;;16.45;;
26253;SDS011;53339;51.378;0.094;2024-03-08T08:28:31;45.95;;;18.63;;
26253;SDS011;53339;51.378;0.094;2024-03-08T08:30:59;45.97;;;16.90;;
26253;SDS011;53339;51.378;0.094;2024-03-08T08:33:27;39.28;;;18.85;;
26253;SDS011;53339;51.378;0.094;2024-03-08T08:35:54;40.90;;;17.17;;
26253;SDS011;53339;51.378;0.094;2024-03-08T08:38:22;33.35;;;15.05;;
26253;SDS011;53339;51.378;0.094;2024-03-08T08:40:50;30.20;;;13.52;;
26253;SDS011;53339;51.378;0.094;2024-03-08T08:43:18;42.28;;;16.38;;
26253;SDS011;53339;51.378;0.094;2024-03-08T08:45:46;40.50;;;15.52;;
26253;SDS011;53339;51.378;0.094;2024-03-08T08:48:17;42.83;;;16.33;;
26253;SDS011;53339;51.378;0.094;2024-03-08T08:50:45;36.20;;;14.27;;
26253;SDS011;53339;51.378;0.094;2024-03-08T08:53:13;41.08;;;16.55;;
26253;SDS011;53339;51.378;0.094;2024-03-08T08:55:41;44.10;;;17.63;;
26253;SDS011;53339;51.378;0.094;2024-03-08T08:58:09;35.42;;;14.80;;
26253;SDS011;53339;51.378;0.094;2024-03-08T09:00:38;33.30;;;15.48;;
26253;SDS011;53339;51.378;0.094;2024-03-08T09:03:06;38.63;;;15.95;;
26253;SDS011;53339;51.378;0.094;2024-03-08T09:05:34;39.53;;;17.35;;
26253;SDS011;53339;51.378;0.094;2024-03-08T09:08:04;42.15;;;16.50;;
26253;SDS011;53339;51.378;0.094;2024-03-08T09:10:31;42.83;;;17.20;;
26253;SDS011;53339;51.378;0.094;2024-03-08T09:13:01;37.42;;;16.88;;
26253;SDS011;53339;51.378;0.094;2024-03-08T09:15:31;37.95;;;15.75;;
26253;SDS011;53339;51.378;0.094;2024-03-08T09:17:58;37.33;;;14.93;;
26253;SDS011;53339;51.378;0.094;2024-03-08T09:20:26;43.72;;;15.90;;
26253;SDS011;53339;51.378;0.094;2024-03-08T09:22:54;30.42;;;14.40;;
26253;SDS011;53339;51.378;0.094;2024-03-08T09:25:22;36.10;;;15.90;;
26253;SDS011;53339;51.378;0.094;2024-03-08T09:27:50;39.08;;;14.13;;
26253;SDS011;53339;51.378;0.094;2024-03-08T09:30:21;34.10;;;15.25;;
26253;SDS011;53339;51.378;0.094;2024-03-08T09:32:49;41.05;;;15.35;;
26253;SDS011;53339;51.378;0.094;2024-03-08T09:35:18;39.40;;;15.55;;
26253;SDS011;53339;51.378;0.094;2024-03-08T09:37:46;37.70;;;14.70;;
26253;SDS011;53339;51.378;0.094;2024-03-08T09:40:17;26.20;;;11.88;;
26253;SDS011;53339;51.378;0.094;2024-03-08T09:42:47;38.13;;;16.38;;
26253;SDS011;53339;51.378;0.094;2024-03-08T09:45:15;35.33;;;15.02;;
26253;SDS011;53339;51.378;0.094;2024-03-08T09:47:44;33.88;;;14.68;;
26253;SDS011;53339;51.378;0.094;2024-03-08T09:50:12;27.35;;;14.18;;
26253;SDS011;53339;51.378;0.094;2024-03-08T09:52:40;26.08;;;11.30;;
26253;SDS011;53339;51.378;0.094;2024-03-08T09:55:08;36.35;;;14.68;;
26253;SDS011;53339;51.378;0.094;2024-03-08T09:57:39;31.67;;;13.77;;
26253;SDS011;53339;51.378;0.094;2024-03-08T10:00:07;33.30;;;14.38;;
26253;SDS011;53339;51.378;0.094;2024-03-08T10:02:45;26.17;;;12.60;;
26253;SDS011;53339;51.378;0.094;2024-03-08T10:05:13;30.08;;;12.77;;
26253;SDS011;53339;51.378;0.094;2024-03-08T10:07:41;37.10;;;13.80;;
26253;SDS011;53339;51.378;0.094;2024-03-08T10:10:08;30.10;;;13.82;;
26253;SDS011;53339;51.378;0.094;2024-03-08T10:12:39;31.25;;;13.70;;
26253;SDS011;53339;51.378;0.094;2024-03-08T10:15:07;33.53;;;15.30;;
26253;SDS011;53339;51.378;0.094;2024-03-08T10:17:35;30.17;;;14.50;;
26253;SDS011;53339;51.378;0.094;2024-03-08T10:20:03;33.75;;;12.88;;
26253;SDS011;53339;51.378;0.094;2024-03-08T10:22:42;31.10;;;13.32;;
26253;SDS011;53339;51.378;0.094;2024-03-08T10:25:16;27.80;;;12.77;;
26253;SDS011;53339;51.378;0.094;2024-03-08T10:27:45;26.92;;;13.77;;
26253;SDS011;53339;51.378;0.094;2024-03-08T10:30:14;32.83;;;13.13;;
26253;SDS011;53339;51.378;0.094;2024-03-08T10:32:43;30.95;;;12.10;;
26253;SDS011;53339;51.378;0.094;2024-03-08T10:35:11;32.05;;;12.93;;
26253;SDS011;53339;51.378;0.094;2024-03-08T10:40:17;28.73;;;13.50;;
26253;SDS011;53339;51.378;0.094;2024-03-08T10:48:03;30.95;;;12.88;;
26253;SDS011;53339;51.378;0.094;2024-03-08T10:50:50;25.15;;;12.25;;
26253;SDS011;53339;51.378;0.094;2024-03-08T10:53:19;29.40;;;12.02;;
26253;SDS011;53339;51.378;0.094;2024-03-08T10:55:49;26.52;;;11.57;;
26253;SDS011;53339;51.378;0.094;2024-03-08T10:58:21;27.60;;;11.40;;
26253;SDS011;53339;51.378;0.094;2024-03-08T11:00:50;25.25;;;11.85;;
26253;SDS011;53339;51.378;0.094;2024-03-08T11:06:08;24.10;;;11.10;;
26253;SDS011;53339;51.378;0.094;2024-03-08T11:08:42;23.10;;;11.20;;
26253;SDS011;53339;51.378;0.094;2024-03-08T11:11:26;28.63;;;13.40;;
26253;SDS011;53339;51.378;0.094;2024-03-08T11:14:00;22.42;;;11.40;;
26253;SDS011;53339;51.378;0.094;2024-03-08T11:19:01;34.47;;;12.32;;
26253;SDS011;53339;51.378;0.094;2024-03-08T11:21:37;27.67;;;12.93;;
26253;SDS011;53339;51.378;0.094;2024-03-08T11:24:12;22.98;;;11.85;;
26253;SDS011;53339;51.378;0.094;2024-03-08T11:26:40;25.63;;;12.20;;
26253;SDS011;53339;51.378;0.094;2024-03-08T11:32:04;22.70;;;10.90;;
26253;SDS011;53339;51.378;0.094;2024-03-08T11:34:41;22.92;;;10.50;;
26253;SDS011;53339;51.378;0.094;2024-03-08T11:37:14;24.73;;;11.25;;
26253;SDS011;53339;51.378;0.094;2024-03-08T11:39:46;23.60;;;11.55;;
26253;SDS011;53339;51.378;0.094;2024-03-08T11:42:18;25.17;;;11.13;;
26253;SDS011;53339;51.378;0.094;2024-03-08T11:44:48;24.45;;;10.95;;
26253;SDS011;53339;51.378;0.094;2024-03-08T11:47:18;28.30;;;12.10;;
26253;SDS011;53339;51.378;0.094;2024-03-08T11:49:46;27.95;;;11.65;;
26253;SDS011;53339;51.378;0.094;2024-03-08T11:52:17;21.02;;;9.88;;
26253;SDS011;53339;51.378;0.094;2024-03-08T11:54:52;21.38;;;9.27;;
26253;SDS011;53339;51.378;0.094;2024-03-08T11:57:25;22.33;;;11.02;;
26253;SDS011;53339;51.378;0.094;2024-03-08T11:59:53;28.55;;;11.48;;
26253;SDS011;53339;51.378;0.094;2024-03-08T12:02:25;22.08;;;9.85;;
26253;SDS011;53339;51.378;0.094;2024-03-08T12:05:00;22.80;;;10.60;;
26253;SDS011;53339;51.378;0.094;2024-03-08T12:07:30;28.23;;;11.80;;
26253;SDS011;53339;51.378;0.094;2024-03-08T12:10:20;25.73;;;13.70;;
26253;SDS011;53339;51.378;0.094;2024-03-08T12:12:49;26.67;;;12.13;;
26253;SDS011;53339;51.378;0.094;2024-03-08T12:15:23;29.50;;;11.95;;
26253;SDS011;53339;51.378;0.094;2024-03-08T12:17:52;28.35;;;12.75;;
26253;SDS011;53339;51.378;0.094;2024-03-08T12:20:26;30.25;;;12.05;;
26253;SDS011;53339;51.378;0.094;2024-03-08T12:22:58;23.08;;;10.98;;
26253;SDS011;53339;51.378;0.094;2024-03-08T12:25:33;28.58;;;13.13;;
26253;SDS011;53339;51.378;0.094;2024-03-08T12:28:07;23.70;;;11.38;;
26253;SDS011;53339;51.378;0.094;2024-03-08T12:30:50;23.38;;;11.98;;
26253;SDS011;53339;51.378;0.094;2024-03-08T12:33:21;23.50;;;11.85;;
26253;SDS011;53339;51.378;0.094;2024-03-08T12:35:53;28.08;;;12.82;;
26253;SDS011;53339;51.378;0.094;2024-03-08T12:38:22;31.25;;;13.35;;
26253;SDS011;53339;51.378;0.094;2024-03-08T12:40:59;27.85;;;11.90;;
26253;SDS011;53339;51.378;0.094;2024-03-08T12:43:28;29.05;;;13.82;;
26253;SDS011;53339;51.378;0.094;2024-03-08T12:45:58;27.90;;;13.27;;
26253;SDS011;53339;51.378;0.094;2024-03-08T12:48:25;31.27;;;14.18;;
26253;SDS011;53339;51.378;0.094;2024-03-08T12:50:53;32.40;;;14.70;;
26253;SDS011;53339;51.378;0.094;2024-03-08T12:53:22;33.42;;;13.75;;
26253;SDS011;53339;51.378;0.094;2024-03-08T12:55:51;27.77;;;12.48;;
26253;SDS011;53339;51.378;0.094;2024-03-08T12:58:19;34.47;;;14.80;;
26253;SDS011;53339;51.378;0.094;2024-03-08T13:00:50;28.10;;;12.93;;
26253;SDS011;53339;51.378;0.094;2024-03-08T13:03:19;30.77;;;13.80;;
26253;SDS011;53339;51.378;0.094;2024-03-08T13:05:48;27.08;;;14.02;;
26253;SDS011;53339;51.378;0.094;2024-03-08T13:08:16;31.20;;;14.48;;
26253;SDS011;53339;51.378;0.094;2024-03-08T13:10:45;31.58;;;12.98;;
26253;SDS011;53339;51.378;0.094;2024-03-08T13:13:13;33.65;;;14.95;;
26253;SDS011;53339;51.378;0.094;2024-03-08T13:15:44;25.20;;;13.48;;
26253;SDS011;53339;51.378;0.094;2024-03-08T13:18:12;29.63;;;13.73;;
26253;SDS011;53339;51.378;0.094;2024-03-08T13:20:40;35.22;;;15.85;;
26253;SDS011;53339;51.378;0.094;2024-03-08T13:23:13;33.25;;;15.32;;
26253;SDS011;53339;51.378;0.094;2024-03-08T13:25:41;24.90;;;12.35;;
26253;SDS011;53339;51.378;0.094;2024-03-08T13:28:09;33.53;;;15.45;;
26253;SDS011;53339;51.378;0.094;2024-03-08T13:30:40;29.90;;;13.75;;
26253;SDS011;53339;51.378;0.094;2024-03-08T13:33:08;32.40;;;16.13;;
26253;SDS011;53339;51.378;0.094;2024-03-08T13:35:36;28.17;;;12.73;;
26253;SDS011;53339;51.378;0.094;2024-03-08T13:38:04;32.30;;;16.45;;
26253;SDS011;53339;51.378;0.094;2024-03-08T13:40:36;31.30;;;14.05;;
26253;SDS011;53339;51.378;0.094;2024-03-08T13:43:03;29.55;;;14.05;;
26253;SDS011;53339;51.378;0.094;2024-03-08T13:45:31;28.90;;;14.35;;
26253;SDS011;53339;51.378;0.094;2024-03-08T13:48:00;32.92;;;14.60;;
26253;SDS011;53339;51.378;0.094;2024-03-08T13:50:31;32.28;;;15.00;;
26253;SDS011;53339;51.378;0.094;2024-03-08T13:52:59;32.55;;;15.57;;
26253;SDS011;53339;51.378;0.094;2024-03-08T13:55:26;29.42;;;14.40;;
26253;SDS011;53339;51.378;0.094;2024-03-08T13:57:54;29.65;;;14.55;;
26253;SDS011;53339;51.378;0.094;2024-03-08T14:00:24;34.03;;;15.25;;
26253;SDS011;53339;51.378;0.094;2024-03-08T14:02:54;33.72;;;14.55;;
26253;SDS011;53339;51.378;0.094;2024-03-08T14:05:22;34.22;;;16.50;;
26253;SDS011;53339;51.378;0.094;2024-03-08T14:07:50;28.25;;;12.45;;
26253;SDS011;53339;51.378;0.094;2024-03-08T14:10:17;31.33;;;14.23;;
26253;SDS011;53339;51.378;0.094;2024-03-08T14:12:50;33.95;;;13.85;;
26253;SDS011;53339;51.378;0.094;2024-03-08T14:15:18;31.17;;;14.63;;
26253;SDS011;53339;51.378;0.094;2024-03-08T14:17:52;28.45;;;11.85;;
26253;SDS011;53339;51.378;0.094;2024-03-08T14:20:20;33.08;;;15.40;;
26253;SDS011;53339;51.378;0.094;2024-03-08T14:22:55;30.35;;;14.13;;
26253;SDS011;53339;51.378;0.094;2024-03-08T14:25:23;32.50;;;14.27;;
26253;SDS011;53339;51.378;0.094;2024-03-08T14:27:52;27.38;;;13.95;;
26253;SDS011;53339;51.378;0.094;2024-03-08T14:30:22;33.20;;;14.38;;
26253;SDS011;53339;51.378;0.094;2024-03-08T14:32:59;31.73;;;13.15;;
26253;SDS011;53339;51.378;0.094;2024-03-08T14:35:30;32.95;;;14.07;;
26253;SDS011;53339;51.378;0.094;2024-03-08T14:37:58;28.88;;;13.63;;
26253;SDS011;53339;51.378;0.094;2024-03-08T14:40:26;31.45;;;14.13;;
26253;SDS011;53339;51.378;0.094;2024-03-08T14:42:53;31.88;;;14.75;;
26253;SDS011;53339;51.378;0.094;2024-03-08T14:45:21;28.48;;;14.00;;
26253;SDS011;53339;51.378;0.094;2024-03-08T14:47:50;28.58;;;13.25;;
26253;SDS011;53339;51.378;0.094;2024-03-08T14:50:22;29.13;;;12.52;;